sensor_id;sensor_type;location;lat;lon;timestamp;temperature;humidity
63260;DHT22;49390;51.380;0.098;2022-07-26T00:01:24;19.10;99.90
63260;DHT22;49390;51.380;0.098;2022-07-26T00:03:59;19.10;99.90
63260;DHT22;49390;51.380;0.098;2022-07-26T00:06:28;19.00;99.90
63260;DHT22;49390;51.380;0.098;2022-07-26T00:08:56;19.00;99.90
63260;DHT22;49390;51.380;0.098;2022-07-26T00:11:24;18.90;99.90
63260;DHT22;49390;51.380;0.098;2022-07-26T00:13:54;18.90;99.90
63260;DHT22;49390;51.380;0.098;2022-07-26T00:16:22;18.90;99.90
63260;DHT22;49390;51.380;0.098;2022-07-26T00:18:51;18.80;99.90
63260;DHT22;49390;51.380;0.098;2022-07-26T00:21:19;18.80;99.90
63260;DHT22;49390;51.380;0.098;2022-07-26T00:23:50;18.70;99.90
63260;DHT22;49390;51.380;0.098;2022-07-26T00:26:18;18.70;99.90
63260;DHT22;49390;51.380;0.098;2022-07-26T00:28:46;18.70;99.90
63260;DHT22;49390;51.380;0.098;2022-07-26T00:31:14;18.60;99.90
63260;DHT22;49390;51.380;0.098;2022-07-26T00:33:44;18.60;99.90
63260;DHT22;49390;51.380;0.098;2022-07-26T00:36:13;18.50;99.90
63260;DHT22;49390;51.380;0.098;2022-07-26T00:38:42;18.50;99.90
63260;DHT22;49390;51.380;0.098;2022-07-26T00:41:13;18.50;99.90
63260;DHT22;49390;51.380;0.098;2022-07-26T00:43:56;18.40;99.90
63260;DHT22;49390;51.380;0.098;2022-07-26T00:46:25;18.40;99.90
63260;DHT22;49390;51.380;0.098;2022-07-26T00:48:53;18.40;99.90
63260;DHT22;49390;51.380;0.098;2022-07-26T00:51:21;18.40;99.90
63260;DHT22;49390;51.380;0.098;2022-07-26T00:53:50;18.40;99.90
63260;DHT22;49390;51.380;0.098;2022-07-26T00:56:19;18.40;99.90
63260;DHT22;49390;51.380;0.098;2022-07-26T00:58:48;18.40;99.90
63260;DHT22;49390;51.380;0.098;2022-07-26T01:01:17;18.40;99.90
63260;DHT22;49390;51.380;0.098;2022-07-26T01:03:50;18.40;99.90
63260;DHT22;49390;51.380;0.098;2022-07-26T01:06:21;18.40;99.90
63260;DHT22;49390;51.380;0.098;2022-07-26T01:08:54;18.40;99.90
63260;DHT22;49390;51.380;0.098;2022-07-26T01:11:23;18.30;99.90
63260;DHT22;49390;51.380;0.098;2022-07-26T01:13:51;18.30;99.90
63260;DHT22;49390;51.380;0.098;2022-07-26T01:16:20;18.30;99.90
63260;DHT22;49390;51.380;0.098;2022-07-26T01:18:48;18.30;99.90
63260;DHT22;49390;51.380;0.098;2022-07-26T01:21:17;18.30;99.90
63260;DHT22;49390;51.380;0.098;2022-07-26T01:23:45;18.30;99.90
63260;DHT22;49390;51.380;0.098;2022-07-26T01:26:14;18.20;99.90
63260;DHT22;49390;51.380;0.098;2022-07-26T01:28:42;18.20;99.90
63260;DHT22;49390;51.380;0.098;2022-07-26T01:31:11;18.20;99.90
63260;DHT22;49390;51.380;0.098;2022-07-26T01:33:39;18.20;99.90
63260;DHT22;49390;51.380;0.098;2022-07-26T01:36:07;18.20;99.90
63260;DHT22;49390;51.380;0.098;2022-07-26T01:38:36;18.20;99.90
63260;DHT22;49390;51.380;0.098;2022-07-26T01:41:04;18.10;99.90
63260;DHT22;49390;51.380;0.098;2022-07-26T01:43:33;18.20;99.90
63260;DHT22;49390;51.380;0.098;2022-07-26T01:46:03;18.20;99.90
63260;DHT22;49390;51.380;0.098;2022-07-26T01:48:34;18.20;99.90
63260;DHT22;49390;51.380;0.098;2022-07-26T01:51:02;18.20;99.90
63260;DHT22;49390;51.380;0.098;2022-07-26T01:53:30;18.20;99.90
63260;DHT22;49390;51.380;0.098;2022-07-26T01:55:59;18.30;99.90
63260;DHT22;49390;51.380;0.098;2022-07-26T01:58:27;18.30;99.90
63260;DHT22;49390;51.380;0.098;2022-07-26T02:00:55;18.30;99.90
63260;DHT22;49390;51.380;0.098;2022-07-26T02:03:23;18.30;99.90
63260;DHT22;49390;51.380;0.098;2022-07-26T02:05:54;18.30;99.90
63260;DHT22;49390;51.380;0.098;2022-07-26T02:08:23;18.30;99.90
63260;DHT22;49390;51.380;0.098;2022-07-26T02:10:52;18.30;99.90
63260;DHT22;49390;51.380;0.098;2022-07-26T02:13:38;18.30;99.90
63260;DHT22;49390;51.380;0.098;2022-07-26T02:16:10;18.30;99.90
63260;DHT22;49390;51.380;0.098;2022-07-26T02:18:42;18.30;99.90
63260;DHT22;49390;51.380;0.098;2022-07-26T02:21:13;18.30;99.90
63260;DHT22;49390;51.380;0.098;2022-07-26T02:23:42;18.30;99.90
63260;DHT22;49390;51.380;0.098;2022-07-26T02:26:10;18.30;99.90
63260;DHT22;49390;51.380;0.098;2022-07-26T02:28:38;18.30;99.90
63260;DHT22;49390;51.380;0.098;2022-07-26T02:31:06;18.30;99.90
63260;DHT22;49390;51.380;0.098;2022-07-26T02:33:34;18.20;99.90
63260;DHT22;49390;51.380;0.098;2022-07-26T02:36:02;18.30;99.90
63260;DHT22;49390;51.380;0.098;2022-07-26T02:38:30;18.30;99.90
63260;DHT22;49390;51.380;0.098;2022-07-26T02:40:59;18.30;99.90
63260;DHT22;49390;51.380;0.098;2022-07-26T02:43:30;18.30;99.90
63260;DHT22;49390;51.380;0.098;2022-07-26T02:45:58;18.30;99.90
63260;DHT22;49390;51.380;0.098;2022-07-26T02:48:30;18.30;99.90
63260;DHT22;49390;51.380;0.098;2022-07-26T02:50:58;18.20;99.90
63260;DHT22;49390;51.380;0.098;2022-07-26T02:53:26;18.20;99.90
63260;DHT22;49390;51.380;0.098;2022-07-26T02:55:56;18.20;99.90
63260;DHT22;49390;51.380;0.098;2022-07-26T02:58:24;18.20;99.90
63260;DHT22;49390;51.380;0.098;2022-07-26T03:00:54;18.20;99.90
63260;DHT22;49390;51.380;0.098;2022-07-26T03:03:22;18.20;99.90
63260;DHT22;49390;51.380;0.098;2022-07-26T03:05:50;18.20;99.90
63260;DHT22;49390;51.380;0.098;2022-07-26T03:08:18;18.20;99.90
63260;DHT22;49390;51.380;0.098;2022-07-26T03:10:50;18.20;99.90
63260;DHT22;49390;51.380;0.098;2022-07-26T03:13:18;18.20;99.90
63260;DHT22;49390;51.380;0.098;2022-07-26T03:15:46;18.20;99.90
63260;DHT22;49390;51.380;0.098;2022-07-26T03:18:14;18.20;99.90
63260;DHT22;49390;51.380;0.098;2022-07-26T03:20:43;18.20;99.90
63260;DHT22;49390;51.380;0.098;2022-07-26T03:23:11;18.20;99.90
63260;DHT22;49390;51.380;0.098;2022-07-26T03:25:40;18.10;99.90
63260;DHT22;49390;51.380;0.098;2022-07-26T03:28:08;18.10;99.90
63260;DHT22;49390;51.380;0.098;2022-07-26T03:30:37;18.10;99.90
63260;DHT22;49390;51.380;0.098;2022-07-26T03:33:05;18.10;99.90
63260;DHT22;49390;51.380;0.098;2022-07-26T03:35:32;18.10;99.90
63260;DHT22;49390;51.380;0.098;2022-07-26T03:38:03;18.10;99.90
63260;DHT22;49390;51.380;0.098;2022-07-26T03:40:31;18.10;99.90
63260;DHT22;49390;51.380;0.098;2022-07-26T03:43:02;18.10;99.90
63260;DHT22;49390;51.380;0.098;2022-07-26T03:45:31;18.10;99.90
63260;DHT22;49390;51.380;0.098;2022-07-26T03:48:02;18.10;99.90
63260;DHT22;49390;51.380;0.098;2022-07-26T03:50:29;18.10;99.90
63260;DHT22;49390;51.380;0.098;2022-07-26T03:52:57;18.10;99.90
63260;DHT22;49390;51.380;0.098;2022-07-26T03:55:25;18.10;99.90
63260;DHT22;49390;51.380;0.098;2022-07-26T03:58:12;18.00;99.90
63260;DHT22;49390;51.380;0.098;2022-07-26T04:00:43;18.10;99.90
63260;DHT22;49390;51.380;0.098;2022-07-26T04:03:11;18.00;99.90
63260;DHT22;49390;51.380;0.098;2022-07-26T04:05:39;18.00;99.90
63260;DHT22;49390;51.380;0.098;2022-07-26T04:08:15;18.00;99.90
63260;DHT22;49390;51.380;0.098;2022-07-26T04:10:48;18.00;99.90
63260;DHT22;49390;51.380;0.098;2022-07-26T04:13:20;18.00;99.90
63260;DHT22;49390;51.380;0.098;2022-07-26T04:15:50;18.00;99.90
63260;DHT22;49390;51.380;0.098;2022-07-26T04:18:19;17.90;99.90
63260;DHT22;49390;51.380;0.098;2022-07-26T04:20:51;17.90;99.90
63260;DHT22;49390;51.380;0.098;2022-07-26T04:23:20;17.90;99.90
63260;DHT22;49390;51.380;0.098;2022-07-26T04:25:49;17.90;99.90
63260;DHT22;49390;51.380;0.098;2022-07-26T04:28:18;17.90;99.90
63260;DHT22;49390;51.380;0.098;2022-07-26T04:30:46;17.90;99.90
63260;DHT22;49390;51.380;0.098;2022-07-26T04:33:15;17.90;99.90
63260;DHT22;49390;51.380;0.098;2022-07-26T04:35:43;17.90;99.90
63260;DHT22;49390;51.380;0.098;2022-07-26T04:38:12;17.90;99.90
63260;DHT22;49390;51.380;0.098;2022-07-26T04:40:42;17.90;99.90
63260;DHT22;49390;51.380;0.098;2022-07-26T04:43:10;17.90;99.90
63260;DHT22;49390;51.380;0.098;2022-07-26T04:45:46;17.90;99.90
63260;DHT22;49390;51.380;0.098;2022-07-26T04:48:14;17.90;99.90
63260;DHT22;49390;51.380;0.098;2022-07-26T04:50:42;17.80;99.90
63260;DHT22;49390;51.380;0.098;2022-07-26T04:53:11;17.80;99.90
63260;DHT22;49390;51.380;0.098;2022-07-26T04:55:40;17.80;99.90
63260;DHT22;49390;51.380;0.098;2022-07-26T04:58:11;17.80;99.90
63260;DHT22;49390;51.380;0.098;2022-07-26T05:00:39;17.80;99.90
63260;DHT22;49390;51.380;0.098;2022-07-26T05:03:28;17.80;99.90
63260;DHT22;49390;51.380;0.098;2022-07-26T05:05:56;17.80;99.90
63260;DHT22;49390;51.380;0.098;2022-07-26T05:08:26;17.70;99.90
63260;DHT22;49390;51.380;0.098;2022-07-26T05:10:56;17.70;99.90
63260;DHT22;49390;51.380;0.098;2022-07-26T05:13:25;17.70;99.90
63260;DHT22;49390;51.380;0.098;2022-07-26T05:15:58;17.70;99.90
63260;DHT22;49390;51.380;0.098;2022-07-26T05:18:28;17.70;99.90
63260;DHT22;49390;51.380;0.098;2022-07-26T05:21:12;17.70;99.90
63260;DHT22;49390;51.380;0.098;2022-07-26T05:23:40;17.70;99.90
63260;DHT22;49390;51.380;0.098;2022-07-26T05:26:10;17.70;99.90
63260;DHT22;49390;51.380;0.098;2022-07-26T05:28:39;17.70;99.90
63260;DHT22;49390;51.380;0.098;2022-07-26T05:31:07;17.70;99.90
63260;DHT22;49390;51.380;0.098;2022-07-26T05:33:35;17.80;99.90
63260;DHT22;49390;51.380;0.098;2022-07-26T05:36:04;17.80;99.90
63260;DHT22;49390;51.380;0.098;2022-07-26T05:38:32;17.80;99.90
63260;DHT22;49390;51.380;0.098;2022-07-26T05:41:01;17.80;99.90
63260;DHT22;49390;51.380;0.098;2022-07-26T05:43:29;17.80;99.90
63260;DHT22;49390;51.380;0.098;2022-07-26T05:46:10;17.80;99.90
63260;DHT22;49390;51.380;0.098;2022-07-26T05:48:39;17.80;99.90
63260;DHT22;49390;51.380;0.098;2022-07-26T05:51:10;17.80;99.90
63260;DHT22;49390;51.380;0.098;2022-07-26T05:53:39;17.80;99.90
63260;DHT22;49390;51.380;0.098;2022-07-26T05:56:07;17.70;99.90
63260;DHT22;49390;51.380;0.098;2022-07-26T05:58:35;17.70;99.90
63260;DHT22;49390;51.380;0.098;2022-07-26T06:01:03;17.70;99.90
63260;DHT22;49390;51.380;0.098;2022-07-26T06:03:32;17.70;99.90
63260;DHT22;49390;51.380;0.098;2022-07-26T06:06:00;17.70;99.90
63260;DHT22;49390;51.380;0.098;2022-07-26T06:08:28;17.70;99.90
63260;DHT22;49390;51.380;0.098;2022-07-26T06:10:57;17.70;99.90
63260;DHT22;49390;51.380;0.098;2022-07-26T06:13:25;17.60;99.90
63260;DHT22;49390;51.380;0.098;2022-07-26T06:15:53;17.60;99.90
63260;DHT22;49390;51.380;0.098;2022-07-26T06:18:22;17.60;99.90
63260;DHT22;49390;51.380;0.098;2022-07-26T06:20:50;17.40;99.90
63260;DHT22;49390;51.380;0.098;2022-07-26T06:23:21;17.30;99.90
63260;DHT22;49390;51.380;0.098;2022-07-26T06:26:04;17.30;99.90
63260;DHT22;49390;51.380;0.098;2022-07-26T06:28:33;17.20;99.90
63260;DHT22;49390;51.380;0.098;2022-07-26T06:31:06;17.20;99.90
63260;DHT22;49390;51.380;0.098;2022-07-26T06:33:35;17.20;99.90
63260;DHT22;49390;51.380;0.098;2022-07-26T06:36:06;17.20;99.90
63260;DHT22;49390;51.380;0.098;2022-07-26T06:38:36;17.30;99.90
63260;DHT22;49390;51.380;0.098;2022-07-26T06:41:04;17.30;99.90
63260;DHT22;49390;51.380;0.098;2022-07-26T06:43:34;17.30;99.90
63260;DHT22;49390;51.380;0.098;2022-07-26T06:46:05;17.30;99.90
63260;DHT22;49390;51.380;0.098;2022-07-26T06:48:34;17.30;99.90
63260;DHT22;49390;51.380;0.098;2022-07-26T06:51:07;17.40;99.90
63260;DHT22;49390;51.380;0.098;2022-07-26T06:53:36;17.50;99.90
63260;DHT22;49390;51.380;0.098;2022-07-26T06:56:07;17.50;99.90
63260;DHT22;49390;51.380;0.098;2022-07-26T06:58:35;17.50;99.90
63260;DHT22;49390;51.380;0.098;2022-07-26T07:01:04;17.50;99.90
63260;DHT22;49390;51.380;0.098;2022-07-26T07:03:32;17.60;99.90
63260;DHT22;49390;51.380;0.098;2022-07-26T07:06:00;17.60;99.90
63260;DHT22;49390;51.380;0.098;2022-07-26T07:08:28;17.70;99.90
63260;DHT22;49390;51.380;0.098;2022-07-26T07:10:56;17.70;99.90
63260;DHT22;49390;51.380;0.098;2022-07-26T07:13:25;17.70;99.90
63260;DHT22;49390;51.380;0.098;2022-07-26T07:15:53;17.70;99.90
63260;DHT22;49390;51.380;0.098;2022-07-26T07:18:21;17.70;99.90
63260;DHT22;49390;51.380;0.098;2022-07-26T07:20:53;17.70;99.90
63260;DHT22;49390;51.380;0.098;2022-07-26T07:23:20;17.80;99.90
63260;DHT22;49390;51.380;0.098;2022-07-26T07:25:50;17.90;99.90
63260;DHT22;49390;51.380;0.098;2022-07-26T07:28:18;18.00;99.90
63260;DHT22;49390;51.380;0.098;2022-07-26T07:30:46;18.10;99.90
63260;DHT22;49390;51.380;0.098;2022-07-26T07:33:14;18.20;99.90
63260;DHT22;49390;51.380;0.098;2022-07-26T07:35:50;18.20;99.90
63260;DHT22;49390;51.380;0.098;2022-07-26T07:38:19;18.20;99.90
63260;DHT22;49390;51.380;0.098;2022-07-26T07:40:49;18.20;99.90
63260;DHT22;49390;51.380;0.098;2022-07-26T07:43:18;18.20;99.90
63260;DHT22;49390;51.380;0.098;2022-07-26T07:45:47;18.20;99.90
63260;DHT22;49390;51.380;0.098;2022-07-26T07:48:15;18.20;99.90
63260;DHT22;49390;51.380;0.098;2022-07-26T07:50:43;18.30;99.90
63260;DHT22;49390;51.380;0.098;2022-07-26T07:53:11;18.40;99.90
63260;DHT22;49390;51.380;0.098;2022-07-26T07:55:40;18.40;99.90
63260;DHT22;49390;51.380;0.098;2022-07-26T07:58:19;18.50;99.90
63260;DHT22;49390;51.380;0.098;2022-07-26T08:00:47;18.50;99.90
63260;DHT22;49390;51.380;0.098;2022-07-26T08:03:16;18.50;99.90
63260;DHT22;49390;51.380;0.098;2022-07-26T08:05:46;18.40;99.90
63260;DHT22;49390;51.380;0.098;2022-07-26T08:08:18;18.30;99.90
63260;DHT22;49390;51.380;0.098;2022-07-26T08:10:51;18.30;99.90
63260;DHT22;49390;51.380;0.098;2022-07-26T08:13:21;18.10;99.90
63260;DHT22;49390;51.380;0.098;2022-07-26T08:15:51;18.10;99.90
63260;DHT22;49390;51.380;0.098;2022-07-26T08:18:20;18.10;99.90
63260;DHT22;49390;51.380;0.098;2022-07-26T08:20:51;18.10;99.90
63260;DHT22;49390;51.380;0.098;2022-07-26T08:23:19;18.20;99.90
63260;DHT22;49390;51.380;0.098;2022-07-26T08:25:48;18.20;99.90
63260;DHT22;49390;51.380;0.098;2022-07-26T08:28:26;18.40;99.90
63260;DHT22;49390;51.380;0.098;2022-07-26T08:31:15;18.40;99.90
63260;DHT22;49390;51.380;0.098;2022-07-26T08:33:44;18.50;99.90
63260;DHT22;49390;51.380;0.098;2022-07-26T08:36:16;18.60;99.90
63260;DHT22;49390;51.380;0.098;2022-07-26T08:38:44;18.70;99.90
63260;DHT22;49390;51.380;0.098;2022-07-26T08:41:16;18.70;99.90
63260;DHT22;49390;51.380;0.098;2022-07-26T08:43:45;18.70;99.90
63260;DHT22;49390;51.380;0.098;2022-07-26T08:46:21;18.60;99.90
63260;DHT22;49390;51.380;0.098;2022-07-26T08:48:55;18.60;99.90
63260;DHT22;49390;51.380;0.098;2022-07-26T08:51:25;18.50;99.90
63260;DHT22;49390;51.380;0.098;2022-07-26T08:53:56;18.50;99.90
63260;DHT22;49390;51.380;0.098;2022-07-26T08:56:33;18.40;99.90
63260;DHT22;49390;51.380;0.098;2022-07-26T08:59:04;18.40;99.90
63260;DHT22;49390;51.380;0.098;2022-07-26T09:01:32;18.30;99.90
63260;DHT22;49390;51.380;0.098;2022-07-26T09:04:20;18.20;99.90
63260;DHT22;49390;51.380;0.098;2022-07-26T09:07:15;18.20;99.90
63260;DHT22;49390;51.380;0.098;2022-07-26T09:12:25;18.30;99.90
63260;DHT22;49390;51.380;0.098;2022-07-26T09:14:53;18.40;99.90
63260;DHT22;49390;51.380;0.098;2022-07-26T09:17:24;18.50;99.90
63260;DHT22;49390;51.380;0.098;2022-07-26T09:22:37;18.80;99.90
63260;DHT22;49390;51.380;0.098;2022-07-26T09:25:19;18.90;99.90
63260;DHT22;49390;51.380;0.098;2022-07-26T09:27:48;19.10;99.90
63260;DHT22;49390;51.380;0.098;2022-07-26T09:30:16;19.20;99.90
63260;DHT22;49390;51.380;0.098;2022-07-26T09:33:02;19.30;99.90
63260;DHT22;49390;51.380;0.098;2022-07-26T09:35:35;19.50;99.90
63260;DHT22;49390;51.380;0.098;2022-07-26T09:38:18;19.70;99.90
63260;DHT22;49390;51.380;0.098;2022-07-26T09:40:46;19.80;99.90
63260;DHT22;49390;51.380;0.098;2022-07-26T09:43:18;19.90;99.90
63260;DHT22;49390;51.380;0.098;2022-07-26T09:46:02;20.10;99.90
63260;DHT22;49390;51.380;0.098;2022-07-26T09:48:31;20.20;99.90
63260;DHT22;49390;51.380;0.098;2022-07-26T09:51:40;20.20;99.90
63260;DHT22;49390;51.380;0.098;2022-07-26T09:54:10;20.20;99.90
63260;DHT22;49390;51.380;0.098;2022-07-26T09:56:45;20.30;99.90
63260;DHT22;49390;51.380;0.098;2022-07-26T09:59:18;20.30;99.90
63260;DHT22;49390;51.380;0.098;2022-07-26T10:01:47;20.30;99.90
63260;DHT22;49390;51.380;0.098;2022-07-26T10:04:16;20.30;99.90
63260;DHT22;49390;51.380;0.098;2022-07-26T10:06:45;20.30;99.90
63260;DHT22;49390;51.380;0.098;2022-07-26T10:09:14;20.40;99.90
63260;DHT22;49390;51.380;0.098;2022-07-26T10:11:56;20.50;99.90
63260;DHT22;49390;51.380;0.098;2022-07-26T10:17:01;20.80;99.90
63260;DHT22;49390;51.380;0.098;2022-07-26T10:20:01;20.90;99.90
63260;DHT22;49390;51.380;0.098;2022-07-26T10:22:44;21.00;99.90
63260;DHT22;49390;51.380;0.098;2022-07-26T10:27:45;21.00;99.90
63260;DHT22;49390;51.380;0.098;2022-07-26T10:33:00;21.10;99.90
63260;DHT22;49390;51.380;0.098;2022-07-26T10:35:39;21.10;99.90
63260;DHT22;49390;51.380;0.098;2022-07-26T10:38:12;21.20;99.90
63260;DHT22;49390;51.380;0.098;2022-07-26T10:41:02;21.20;99.90
63260;DHT22;49390;51.380;0.098;2022-07-26T10:43:29;21.20;99.90
63260;DHT22;49390;51.380;0.098;2022-07-26T10:48:59;21.30;99.90
63260;DHT22;49390;51.380;0.098;2022-07-26T10:51:33;21.30;99.90
63260;DHT22;49390;51.380;0.098;2022-07-26T10:54:06;21.30;99.90
63260;DHT22;49390;51.380;0.098;2022-07-26T10:56:36;21.50;99.90
63260;DHT22;49390;51.380;0.098;2022-07-26T10:59:06;21.50;99.90
63260;DHT22;49390;51.380;0.098;2022-07-26T11:01:40;21.50;99.90
63260;DHT22;49390;51.380;0.098;2022-07-26T11:04:22;21.60;99.90
63260;DHT22;49390;51.380;0.098;2022-07-26T11:06:51;21.70;99.90
63260;DHT22;49390;51.380;0.098;2022-07-26T11:09:19;21.70;99.90
63260;DHT22;49390;51.380;0.098;2022-07-26T11:11:48;21.70;99.90
63260;DHT22;49390;51.380;0.098;2022-07-26T11:14:17;21.80;99.90
63260;DHT22;49390;51.380;0.098;2022-07-26T11:16:47;21.80;99.90
63260;DHT22;49390;51.380;0.098;2022-07-26T11:19:21;21.90;99.90
63260;DHT22;49390;51.380;0.098;2022-07-26T11:21:58;21.80;99.90
63260;DHT22;49390;51.380;0.098;2022-07-26T11:24:27;21.70;99.90
63260;DHT22;49390;51.380;0.098;2022-07-26T11:27:01;21.60;99.90
63260;DHT22;49390;51.380;0.098;2022-07-26T11:29:31;21.70;99.90
63260;DHT22;49390;51.380;0.098;2022-07-26T11:32:16;21.70;99.90
63260;DHT22;49390;51.380;0.098;2022-07-26T11:34:59;21.60;99.90
63260;DHT22;49390;51.380;0.098;2022-07-26T11:37:28;21.60;99.90
63260;DHT22;49390;51.380;0.098;2022-07-26T11:39:58;21.50;99.90
63260;DHT22;49390;51.380;0.098;2022-07-26T11:42:26;21.50;99.90
63260;DHT22;49390;51.380;0.098;2022-07-26T11:44:57;21.40;99.90
63260;DHT22;49390;51.380;0.098;2022-07-26T11:47:24;21.40;99.90
63260;DHT22;49390;51.380;0.098;2022-07-26T11:49:54;21.50;99.90
63260;DHT22;49390;51.380;0.098;2022-07-26T11:52:42;21.60;99.90
63260;DHT22;49390;51.380;0.098;2022-07-26T11:55:10;21.70;99.90
63260;DHT22;49390;51.380;0.098;2022-07-26T11:57:39;21.70;99.90
63260;DHT22;49390;51.380;0.098;2022-07-26T12:00:07;21.60;99.90
63260;DHT22;49390;51.380;0.098;2022-07-26T12:02:38;21.50;99.90
63260;DHT22;49390;51.380;0.098;2022-07-26T12:05:15;21.50;99.90
63260;DHT22;49390;51.380;0.098;2022-07-26T12:07:58;21.60;99.90
63260;DHT22;49390;51.380;0.098;2022-07-26T12:10:27;21.60;99.90
63260;DHT22;49390;51.380;0.098;2022-07-26T12:13:10;21.60;99.90
63260;DHT22;49390;51.380;0.098;2022-07-26T12:15:50;21.60;99.90
63260;DHT22;49390;51.380;0.098;2022-07-26T12:18:22;21.50;99.90
63260;DHT22;49390;51.380;0.098;2022-07-26T12:21:03;21.50;99.90
63260;DHT22;49390;51.380;0.098;2022-07-26T12:26:27;21.60;99.90
63260;DHT22;49390;51.380;0.098;2022-07-26T12:28:57;21.70;99.40
63260;DHT22;49390;51.380;0.098;2022-07-26T12:31:46;21.80;99.40
63260;DHT22;49390;51.380;0.098;2022-07-26T12:34:29;21.90;98.90
63260;DHT22;49390;51.380;0.098;2022-07-26T12:37:15;22.00;98.30
63260;DHT22;49390;51.380;0.098;2022-07-26T12:42:55;22.00;98.30
63260;DHT22;49390;51.380;0.098;2022-07-26T12:45:33;22.10;98.20
63260;DHT22;49390;51.380;0.098;2022-07-26T12:48:07;22.20;97.90
63260;DHT22;49390;51.380;0.098;2022-07-26T12:50:39;22.20;97.50
63260;DHT22;49390;51.380;0.098;2022-07-26T12:53:07;22.10;97.60
63260;DHT22;49390;51.380;0.098;2022-07-26T12:55:39;22.10;97.50
63260;DHT22;49390;51.380;0.098;2022-07-26T12:58:07;22.10;97.80
63260;DHT22;49390;51.380;0.098;2022-07-26T13:00:35;22.10;97.40
63260;DHT22;49390;51.380;0.098;2022-07-26T13:03:03;22.00;97.30
63260;DHT22;49390;51.380;0.098;2022-07-26T13:05:32;22.00;97.30
63260;DHT22;49390;51.380;0.098;2022-07-26T13:07:59;22.00;97.40
63260;DHT22;49390;51.380;0.098;2022-07-26T13:10:27;21.90;97.50
63260;DHT22;49390;51.380;0.098;2022-07-26T13:13:02;21.90;97.50
63260;DHT22;49390;51.380;0.098;2022-07-26T13:15:31;21.90;97.70
63260;DHT22;49390;51.380;0.098;2022-07-26T13:18:05;21.80;98.10
63260;DHT22;49390;51.380;0.098;2022-07-26T13:20:38;21.70;98.00
63260;DHT22;49390;51.380;0.098;2022-07-26T13:23:06;21.70;98.20
63260;DHT22;49390;51.380;0.098;2022-07-26T13:25:40;21.60;98.60
63260;DHT22;49390;51.380;0.098;2022-07-26T13:28:09;21.60;98.90
63260;DHT22;49390;51.380;0.098;2022-07-26T13:30:38;21.50;99.10
63260;DHT22;49390;51.380;0.098;2022-07-26T13:33:09;21.50;99.90
63260;DHT22;49390;51.380;0.098;2022-07-26T13:35:38;21.40;99.90
63260;DHT22;49390;51.380;0.098;2022-07-26T13:38:09;21.20;99.90
63260;DHT22;49390;51.380;0.098;2022-07-26T13:40:37;21.20;99.90
63260;DHT22;49390;51.380;0.098;2022-07-26T13:43:06;21.10;99.90
63260;DHT22;49390;51.380;0.098;2022-07-26T13:45:34;21.00;99.90
63260;DHT22;49390;51.380;0.098;2022-07-26T13:48:03;21.00;99.90
63260;DHT22;49390;51.380;0.098;2022-07-26T13:50:32;21.00;99.90
63260;DHT22;49390;51.380;0.098;2022-07-26T13:53:00;21.00;99.90
63260;DHT22;49390;51.380;0.098;2022-07-26T13:55:28;21.00;99.90
63260;DHT22;49390;51.380;0.098;2022-07-26T13:57:56;21.00;99.90
63260;DHT22;49390;51.380;0.098;2022-07-26T14:00:30;21.10;99.90
63260;DHT22;49390;51.380;0.098;2022-07-26T14:02:59;21.10;99.90
63260;DHT22;49390;51.380;0.098;2022-07-26T14:05:27;21.20;99.90
63260;DHT22;49390;51.380;0.098;2022-07-26T14:07:55;21.30;99.90
63260;DHT22;49390;51.380;0.098;2022-07-26T14:10:24;21.40;99.90
63260;DHT22;49390;51.380;0.098;2022-07-26T14:12:53;21.50;99.90
63260;DHT22;49390;51.380;0.098;2022-07-26T14:15:21;21.60;99.90
63260;DHT22;49390;51.380;0.098;2022-07-26T14:17:51;21.80;99.90
63260;DHT22;49390;51.380;0.098;2022-07-26T14:20:20;21.90;99.90
63260;DHT22;49390;51.380;0.098;2022-07-26T14:22:49;22.00;98.90
63260;DHT22;49390;51.380;0.098;2022-07-26T14:25:22;22.20;97.80
63260;DHT22;49390;51.380;0.098;2022-07-26T14:27:52;22.30;96.50
63260;DHT22;49390;51.380;0.098;2022-07-26T14:30:20;22.30;96.40
63260;DHT22;49390;51.380;0.098;2022-07-26T14:32:49;22.40;96.10
63260;DHT22;49390;51.380;0.098;2022-07-26T14:35:20;22.50;95.20
63260;DHT22;49390;51.380;0.098;2022-07-26T14:37:48;22.70;94.60
63260;DHT22;49390;51.380;0.098;2022-07-26T14:40:16;22.80;93.90
63260;DHT22;49390;51.380;0.098;2022-07-26T14:42:45;23.00;92.70
63260;DHT22;49390;51.380;0.098;2022-07-26T14:45:14;23.20;90.60
63260;DHT22;49390;51.380;0.098;2022-07-26T14:47:43;23.20;87.60
63260;DHT22;49390;51.380;0.098;2022-07-26T14:50:12;23.30;84.90
63260;DHT22;49390;51.380;0.098;2022-07-26T14:52:45;23.40;81.10
63260;DHT22;49390;51.380;0.098;2022-07-26T14:55:15;23.50;77.90
63260;DHT22;49390;51.380;0.098;2022-07-26T14:57:51;23.60;76.50
63260;DHT22;49390;51.380;0.098;2022-07-26T15:00:20;23.70;73.70
63260;DHT22;49390;51.380;0.098;2022-07-26T15:02:48;23.70;73.10
63260;DHT22;49390;51.380;0.098;2022-07-26T15:05:19;23.60;73.00
63260;DHT22;49390;51.380;0.098;2022-07-26T15:07:47;23.50;75.10
63260;DHT22;49390;51.380;0.098;2022-07-26T15:10:15;23.50;75.20
63260;DHT22;49390;51.380;0.098;2022-07-26T15:12:44;23.60;75.70
63260;DHT22;49390;51.380;0.098;2022-07-26T15:15:12;23.70;75.70
63260;DHT22;49390;51.380;0.098;2022-07-26T15:17:40;23.80;74.70
63260;DHT22;49390;51.380;0.098;2022-07-26T15:20:09;23.90;73.90
63260;DHT22;49390;51.380;0.098;2022-07-26T15:22:37;24.00;72.60
63260;DHT22;49390;51.380;0.098;2022-07-26T15:25:09;24.00;69.80
63260;DHT22;49390;51.380;0.098;2022-07-26T15:27:37;24.00;67.50
63260;DHT22;49390;51.380;0.098;2022-07-26T15:30:07;24.00;66.40
63260;DHT22;49390;51.380;0.098;2022-07-26T15:32:42;23.90;66.20
63260;DHT22;49390;51.380;0.098;2022-07-26T15:35:11;23.90;66.30
63260;DHT22;49390;51.380;0.098;2022-07-26T15:37:42;23.90;66.30
63260;DHT22;49390;51.380;0.098;2022-07-26T15:40:17;23.80;66.90
63260;DHT22;49390;51.380;0.098;2022-07-26T15:42:47;23.80;67.50
63260;DHT22;49390;51.380;0.098;2022-07-26T15:45:18;23.90;67.20
63260;DHT22;49390;51.380;0.098;2022-07-26T15:47:51;23.90;67.40
63260;DHT22;49390;51.380;0.098;2022-07-26T15:50:26;23.90;67.90
63260;DHT22;49390;51.380;0.098;2022-07-26T15:52:53;24.00;67.90
63260;DHT22;49390;51.380;0.098;2022-07-26T15:55:21;24.00;67.70
63260;DHT22;49390;51.380;0.098;2022-07-26T15:57:53;24.00;67.30
63260;DHT22;49390;51.380;0.098;2022-07-26T16:00:21;23.90;66.50
63260;DHT22;49390;51.380;0.098;2022-07-26T16:02:49;23.80;66.20
63260;DHT22;49390;51.380;0.098;2022-07-26T16:05:18;23.70;65.80
63260;DHT22;49390;51.380;0.098;2022-07-26T16:07:46;23.60;65.50
63260;DHT22;49390;51.380;0.098;2022-07-26T16:10:16;23.60;65.30
63260;DHT22;49390;51.380;0.098;2022-07-26T16:12:44;23.60;65.20
63260;DHT22;49390;51.380;0.098;2022-07-26T16:15:13;23.60;65.20